Time;durP1;ratioP1;P1;durP2;ratioP2;P2;SDS_P1;SDS_P2;PMS_P1;PMS_P2;Temp;Humidity;BMP_temperature;BMP_pressure;BME280_temperature;BME280_humidity;BME280_pressure;Samples;Min_cycle;Max_cycle;Signal;HPM_P1;HPM_P2
2021/04/26 00:00:01;;;;;;;6.82;4.78;;;;;;;10.23;51.92;94669.84;2988224;39;20088;-84
2021/04/26 00:02:03;;;;;;;7.22;4.78;;;;;;;10.30;52.33;94666.63;2988274;39;20055;-82
2021/04/26 00:04:04;;;;;;;8.35;4.50;;;;;;;10.12;51.58;94670.13;3003716;39;20042;-86
2021/04/26 00:06:05;;;;;;;8.75;4.35;;;;;;;10.08;52.27;94671.41;2998535;39;20043;-85
2021/04/26 00:08:07;;;;;;;6.68;4.03;;;;;;;9.96;52.72;94681.34;2989295;39;20370;-84
2021/04/26 00:10:09;;;;;;;6.90;4.50;;;;;;;9.90;52.33;94679.34;2988426;39;20063;-84
2021/04/26 00:12:11;;;;;;;8.25;3.83;;;;;;;9.75;52.87;94681.72;2997185;39;20051;-83
2021/04/26 00:14:12;;;;;;;7.65;4.10;;;;;;;9.76;52.88;94685.16;2996754;39;20331;-85
2021/04/26 00:16:13;;;;;;;8.98;4.93;;;;;;;9.87;52.53;94673.59;2996268;39;20084;-83
2021/04/26 00:18:14;;;;;;;6.72;4.55;;;;;;;10.01;52.76;94679.06;2996655;39;20086;-83
2021/04/26 00:20:17;;;;;;;6.97;4.90;;;;;;;10.14;53.58;94683.06;2987659;39;20333;-84
2021/04/26 00:22:19;;;;;;;12.02;7.05;;;;;;;10.22;53.64;94686.53;2983566;39;20158;-84
2021/04/26 00:24:20;;;;;;;12.80;7.35;;;;;;;10.28;53.91;94689.50;2996999;39;20051;-86
2021/04/26 00:26:21;;;;;;;10.85;7.00;;;;;;;10.32;53.29;94698.72;2987866;39;20092;-86
2021/04/26 00:28:23;;;;;;;12.23;7.55;;;;;;;10.34;53.62;94699.38;2988211;39;20063;-86
2021/04/26 00:30:25;;;;;;;11.15;7.30;;;;;;;10.34;53.25;94699.38;2986947;39;20056;-85
2021/04/26 00:32:26;;;;;;;12.20;7.50;;;;;;;10.29;53.56;94699.84;2996117;39;20050;-86
2021/04/26 00:34:28;;;;;;;12.88;7.20;;;;;;;10.19;54.15;94702.53;2996165;39;20123;-82
2021/04/26 00:36:29;;;;;;;10.80;6.15;;;;;;;10.11;53.61;94704.31;2996153;39;20075;-84
2021/04/26 00:38:30;;;;;;;11.35;6.00;;;;;;;10.00;54.08;94708.84;2995774;39;20139;-84
2021/04/26 00:40:31;;;;;;;10.77;6.70;;;;;;;9.91;54.38;94714.19;2992830;39;20083;-71
2021/04/26 00:42:33;;;;;;;14.13;7.40;;;;;;;9.76;55.26;94714.75;2988654;39;20039;-72
2021/04/26 00:44:34;;;;;;;10.18;5.90;;;;;;;9.73;54.89;94722.91;2975663;39;20052;-72
2021/04/26 00:46:35;;;;;;;9.20;5.13;;;;;;;9.64;54.49;94723.81;2993882;39;20063;-71
2021/04/26 00:48:37;;;;;;;7.32;4.88;;;;;;;9.55;54.53;94709.88;2978472;39;20056;-71
2021/04/26 00:50:40;;;;;;;10.52;5.75;;;;;;;9.62;54.47;94715.31;2996006;39;20423;-72
2021/04/26 00:52:42;;;;;;;10.63;6.57;;;;;;;9.73;54.28;94714.25;2992464;39;20336;-74
2021/04/26 00:54:44;;;;;;;9.77;6.28;;;;;;;9.86;54.13;94722.50;2983822;39;20427;-86
2021/04/26 00:56:45;;;;;;;11.10;6.97;;;;;;;9.91;53.98;94724.66;2989072;39;20056;-85
2021/04/26 00:58:46;;;;;;;9.02;6.40;;;;;;;10.00;53.83;94724.56;2989674;39;20051;-82
2021/04/26 01:00:47;;;;;;;16.45;6.70;;;;;;;10.08;53.50;94731.63;2987222;39;20422;-85
2021/04/26 01:02:49;;;;;;;10.82;6.88;;;;;;;10.06;53.41;94736.19;2985989;39;20415;-71
2021/04/26 01:04:53;;;;;;;12.38;6.35;;;;;;;9.51;55.33;94749.56;2985349;39;20409;-71
2021/04/26 01:06:54;;;;;;;11.95;6.55;;;;;;;8.71;57.60;94752.88;2983191;39;20461;-73
2021/04/26 01:08:56;;;;;;;13.60;7.32;;;;;;;8.75;57.46;94748.97;2992607;39;20122;-71
2021/04/26 01:10:58;;;;;;;11.20;7.40;;;;;;;8.79;57.37;94745.09;2990144;39;20197;-72
2021/04/26 01:13:14;;;;;;;9.80;5.82;;;;;;;8.99;57.13;94743.22;2983288;39;20067;-72
2021/04/26 01:15:15;;;;;;;12.77;6.68;;;;;;;9.15;56.17;94739.09;2991887;39;20058;-72
2021/04/26 01:17:26;;;;;;;10.95;6.28;;;;;;;9.16;56.24;94740.75;2992108;39;20062;-71
2021/04/26 01:19:42;;;;;;;13.00;6.82;;;;;;;9.07;56.48;94746.88;2983300;39;20448;-70
2021/04/26 01:22:11;;;;;;;11.13;7.15;;;;;;;8.78;57.17;94750.50;2989738;39;20051;-72
2021/04/26 01:24:32;;;;;;;11.40;7.03;;;;;;;8.40;58.94;94752.31;2996267;39;20047;-85
2021/04/26 01:26:44;;;;;;;11.90;7.45;;;;;;;8.31;58.64;94742.72;2986013;39;20447;-85
2021/04/26 01:29:15;;;;;;;11.50;6.80;;;;;;;8.33;59.17;94744.22;2999242;39;20116;-83
2021/04/26 01:32:06;;;;;;;13.65;7.25;;;;;;;8.55;58.09;94742.22;2983758;39;20056;-85
2021/04/26 01:34:07;;;;;;;11.63;7.10;;;;;;;8.82;56.93;94744.81;2986214;39;20396;-83
2021/04/26 01:36:13;;;;;;;11.50;7.20;;;;;;;8.96;56.99;94740.88;2988539;39;20067;-85
2021/04/26 01:38:19;;;;;;;10.60;7.13;;;;;;;9.05;57.41;94739.16;2987566;39;20060;-85
2021/04/26 01:40:21;;;;;;;11.30;7.32;;;;;;;9.14;56.59;94738.28;2986059;39;20064;-86
2021/04/26 01:42:23;;;;;;;12.27;7.20;;;;;;;9.20;56.35;94737.66;2986622;39;20064;-83
2021/04/26 01:44:24;;;;;;;13.68;7.40;;;;;;;9.21;56.68;94728.88;2986234;39;20184;-84
2021/04/26 01:46:26;;;;;;;12.55;7.22;;;;;;;9.32;56.16;94737.47;2993569;39;20097;-86
2021/04/26 01:48:29;;;;;;;13.18;8.48;;;;;;;9.30;56.59;94737.59;2993349;39;20051;-83
2021/04/26 01:50:31;;;;;;;10.35;7.05;;;;;;;9.28;56.92;94734.31;2995669;39;20050;-85
2021/04/26 01:52:33;;;;;;;12.35;7.95;;;;;;;9.30;56.79;94734.19;2996798;39;20047;-85
2021/04/26 01:54:35;;;;;;;14.48;8.65;;;;;;;8.91;57.75;94730.06;2986229;39;20076;-83
2021/04/26 01:56:37;;;;;;;12.23;7.97;;;;;;;8.68;58.25;94731.44;2990147;39;20075;-85
2021/04/26 01:58:40;;;;;;;11.55;7.72;;;;;;;8.56;59.52;94739.50;2997932;39;20051;-84
2021/04/26 02:00:42;;;;;;;13.07;8.13;;;;;;;8.66;58.83;94736.81;2983957;39;20409;-73
2021/04/26 02:02:44;;;;;;;15.02;8.98;;;;;;;8.61;58.99;94737.25;2983136;39;20115;-71
2021/04/26 02:04:46;;;;;;;14.77;8.45;;;;;;;8.64;59.20;94740.53;2983253;39;20070;-70
2021/04/26 02:06:48;;;;;;;12.63;7.53;;;;;;;8.64;58.81;94735.31;2984543;39;20061;-84
2021/04/26 02:08:51;;;;;;;13.75;8.10;;;;;;;8.53;59.36;94731.13;2985064;39;20087;-84
2021/04/26 02:10:52;;;;;;;14.77;7.38;;;;;;;8.61;59.04;94739.84;2986584;39;20117;-87
2021/04/26 02:12:54;;;;;;;12.38;7.68;;;;;;;8.75;58.77;94741.13;2996409;39;20046;-89
2021/04/26 02:14:56;;;;;;;11.35;6.88;;;;;;;8.87;58.60;94740.97;2986613;39;20083;-85
2021/04/26 02:16:57;;;;;;;11.35;7.63;;;;;;;8.94;57.83;94727.13;2985561;39;20424;-85
2021/04/26 02:18:59;;;;;;;12.68;7.72;;;;;;;9.02;57.96;94727.22;2980489;39;20433;-87
2021/04/26 02:21:00;;;;;;;13.57;7.75;;;;;;;9.09;57.63;94729.25;2985953;39;20088;-86
2021/04/26 02:23:03;;;;;;;12.43;7.82;;;;;;;9.14;57.11;94721.78;2985628;39;20088;-86
2021/04/26 02:25:08;;;;;;;10.90;7.57;;;;;;;9.20;57.05;94729.00;2996426;39;20073;-83
2021/04/26 02:27:09;;;;;;;16.85;7.65;;;;;;;9.25;56.10;94723.34;2981073;39;20122;-84
2021/04/26 02:29:10;;;;;;;15.38;7.68;;;;;;;9.24;56.18;94717.28;2994914;39;20073;-84
2021/04/26 02:31:17;;;;;;;14.23;7.97;;;;;;;9.29;56.49;94719.44;2986001;39;20024;-86
2021/04/26 02:33:30;;;;;;;12.52;7.82;;;;;;;9.30;56.17;94715.88;2985546;39;20080;-85
2021/04/26 02:35:38;;;;;;;12.70;7.47;;;;;;;9.32;56.15;94719.97;2990599;39;20351;-83
2021/04/26 02:37:43;;;;;;;10.82;7.70;;;;;;;9.34;56.50;94725.06;2995372;39;20110;-85
2021/04/26 02:39:45;;;;;;;15.77;8.07;;;;;;;9.31;56.43;94725.34;2997883;39;20027;-85
2021/04/26 02:41:47;;;;;;;14.50;7.50;;;;;;;9.23;56.73;94728.72;2981873;39;20425;-86
2021/04/26 02:43:57;;;;;;;11.43;7.20;;;;;;;9.20;56.13;94731.63;2985583;39;20081;-83
2021/04/26 02:46:00;;;;;;;11.98;7.65;;;;;;;9.17;56.41;94731.94;2985992;39;20068;-85
2021/04/26 02:48:01;;;;;;;14.98;8.05;;;;;;;9.17;57.08;94727.53;2985955;39;20098;-85
2021/04/26 02:50:05;;;;;;;12.07;7.45;;;;;;;9.19;56.13;94730.81;2985491;39;20032;-85
2021/04/26 02:52:07;;;;;;;17.02;7.63;;;;;;;9.12;56.98;94734.16;2981027;39;20328;-85
2021/04/26 02:54:08;;;;;;;18.05;8.98;;;;;;;8.81;58.11;94739.75;2978453;39;20056;-83
2021/04/26 02:56:12;;;;;;;12.57;8.32;;;;;;;8.82;57.82;94738.78;2995216;39;20051;-84
2021/04/26 02:58:13;;;;;;;16.92;8.07;;;;;;;8.85;58.25;94738.47;2997076;39;20054;-71
2021/04/26 03:00:18;;;;;;;11.65;7.88;;;;;;;8.90;57.89;94733.63;2981169;39;20145;-72
2021/04/26 03:02:20;;;;;;;12.20;7.93;;;;;;;8.98;57.51;94731.09;2976187;39;20478;-72
2021/04/26 03:04:22;;;;;;;11.48;7.00;;;;;;;9.01;57.28;94729.97;2982817;39;20137;-72
2021/04/26 03:06:24;;;;;;;14.27;7.30;;;;;;;9.05;56.92;94739.16;2984407;39;20055;-71
2021/04/26 03:08:27;;;;;;;11.60;7.35;;;;;;;9.05;57.40;94735.75;2984129;39;20077;-71
2021/04/26 03:10:29;;;;;;;14.98;7.45;;;;;;;9.00;57.19;94737.00;2976062;39;20065;-71
2021/04/26 03:12:33;;;;;;;12.25;7.93;;;;;;;9.02;57.18;94734.25;2976691;39;20052;-70
2021/04/26 03:14:34;;;;;;;;;;;;;;;9.06;57.45;94745.25;2983220;39;20084;-73
2021/04/26 03:16:36;;;;;;;11.73;7.28;;;;;;;9.02;56.43;94742.09;2984608;39;19928;-70
2021/04/26 03:18:39;;;;;;;16.17;8.02;;;;;;;8.99;57.43;94753.66;2979654;39;20105;-71
2021/04/26 03:20:41;;;;;;;14.40;8.15;;;;;;;8.78;57.78;94758.34;2969672;40;20088;-72
2021/04/26 03:22:44;;;;;;;16.38;7.78;;;;;;;8.66;58.21;94762.09;2983490;39;20051;-71
2021/04/26 03:24:45;;;;;;;16.00;7.72;;;;;;;8.54;58.33;94762.31;2983152;39;20051;-71
2021/04/26 03:26:51;;;;;;;14.10;8.40;;;;;;;8.54;58.32;94764.06;2991722;39;20075;-72
2021/04/26 03:28:53;;;;;;;12.02;7.63;;;;;;;8.34;58.69;94765.94;2990027;39;20485;-71
2021/04/26 03:30:57;;;;;;;14.55;7.75;;;;;;;8.12;59.49;94775.75;2985076;39;20060;-71
2021/04/26 03:32:58;;;;;;;14.10;7.93;;;;;;;7.73;60.65;94788.88;2993319;39;20151;-71
2021/04/26 03:35:00;;;;;;;12.68;7.72;;;;;;;7.70;60.81;94785.72;2984049;39;20054;-74
2021/04/26 03:37:02;;;;;;;12.32;7.43;;;;;;;7.85;60.42;94780.91;2992381;39;20335;-70
2021/04/26 03:39:05;;;;;;;12.75;7.32;;;;;;;8.03;60.25;94779.22;2992745;39;20051;-73
2021/04/26 03:41:07;;;;;;;11.80;7.28;;;;;;;8.05;59.81;94779.91;2982947;39;20118;-85
2021/04/26 03:43:08;;;;;;;17.63;8.82;;;;;;;8.05;59.96;94782.50;2986530;39;20062;-71
2021/04/26 03:45:13;;;;;;;14.05;7.45;;;;;;;8.10;59.57;94772.47;2992158;39;20075;-72
2021/04/26 03:47:15;;;;;;;13.40;7.57;;;;;;;8.00;60.08;94774.28;2971571;39;20144;-72
2021/04/26 03:49:18;;;;;;;15.02;7.88;;;;;;;8.02;59.68;94788.00;2974540;39;20060;-71
2021/04/26 03:51:19;;;;;;;16.88;7.93;;;;;;;8.01;59.68;94786.38;2991860;39;20073;-73
2021/04/26 03:53:20;;;;;;;15.65;8.43;;;;;;;8.05;59.91;94787.72;2977872;39;20068;-73
2021/04/26 03:55:22;;;;;;;18.30;7.78;;;;;;;8.07;59.83;94785.00;2991295;39;20047;-72
2021/04/26 03:57:24;;;;;;;15.90;7.38;;;;;;;8.10;59.42;94780.28;2992853;39;20083;-73
2021/04/26 03:59:25;;;;;;;13.65;8.23;;;;;;;8.13;59.79;94787.00;2983851;39;20068;-73
2021/04/26 04:01:29;;;;;;;14.50;8.32;;;;;;;8.24;59.54;94789.47;2993263;39;20051;-72
2021/04/26 04:03:30;;;;;;;12.50;7.30;;;;;;;8.28;59.50;94789.97;2993359;39;20440;-72
2021/04/26 04:05:31;;;;;;;14.23;7.85;;;;;;;8.25;58.85;94790.28;2993089;39;20055;-71
2021/04/26 04:07:34;;;;;;;14.57;8.93;;;;;;;8.23;59.07;94784.38;2984691;39;20359;-72
2021/04/26 04:09:35;;;;;;;14.82;8.45;;;;;;;8.32;59.36;94792.16;2974197;39;20370;-70
2021/04/26 04:11:36;;;;;;;13.93;8.98;;;;;;;8.34;58.68;94790.22;2992571;39;20051;-74
2021/04/26 04:13:38;;;;;;;14.95;8.73;;;;;;;8.42;58.30;94800.00;2990239;39;20462;-73
2021/04/26 04:15:39;;;;;;;17.25;8.40;;;;;;;7.97;58.92;94811.09;2988748;39;20054;-72
2021/04/26 04:17:40;;;;;;;24.77;11.93;;;;;;;7.74;60.13;94813.16;2993006;39;20063;-73
2021/04/26 04:19:42;;;;;;;26.50;12.48;;;;;;;7.85;60.40;94812.19;2993129;39;20042;-73
2021/04/26 04:21:43;;;;;;;29.73;12.43;;;;;;;8.12;59.29;94814.88;2983081;39;20063;-71
2021/04/26 04:23:44;;;;;;;22.17;10.60;;;;;;;8.21;58.43;94819.25;2987885;39;20066;-72
2021/04/26 04:25:45;;;;;;;12.57;8.77;;;;;;;8.11;58.52;94823.69;2983985;39;20098;-74
2021/04/26 04:27:47;;;;;;;12.98;8.23;;;;;;;8.06;58.63;94819.84;2993372;39;20488;-72
2021/04/26 04:29:48;;;;;;;13.00;9.52;;;;;;;7.61;59.78;94826.50;2992393;39;20059;-72
2021/04/26 04:31:49;;;;;;;12.63;9.57;;;;;;;7.50;60.42;94822.22;2994011;39;20039;-70
2021/04/26 04:33:51;;;;;;;19.38;8.80;;;;;;;7.17;61.09;94823.47;2988317;39;20054;-71
2021/04/26 04:35:53;;;;;;;14.13;8.32;;;;;;;7.21;61.46;94813.59;2993175;39;20087;-72
2021/04/26 04:37:54;;;;;;;16.10;8.77;;;;;;;7.32;60.83;94821.28;2975456;39;20091;-72
2021/04/26 04:39:55;;;;;;;16.42;9.15;;;;;;;7.57;60.32;94820.75;2991098;39;20067;-74
2021/04/26 04:41:57;;;;;;;16.63;9.35;;;;;;;7.74;59.52;94829.66;2990199;39;20182;-72
2021/04/26 04:44:00;;;;;;;16.40;9.85;;;;;;;7.74;59.19;94821.84;2983168;39;20051;-73
2021/04/26 04:46:01;;;;;;;17.95;9.90;;;;;;;7.93;58.81;94817.53;2991791;39;20083;-72
2021/04/26 04:48:04;;;;;;;13.27;8.75;;;;;;;8.19;57.78;94821.22;2979075;39;20047;-71
2021/04/26 04:50:05;;;;;;;16.75;8.75;;;;;;;7.80;58.86;94823.88;2992968;39;20127;-71
2021/04/26 04:52:07;;;;;;;18.30;8.95;;;;;;;7.80;59.27;94828.25;2987843;39;20046;-72
2021/04/26 04:54:08;;;;;;;15.90;8.60;;;;;;;7.95;58.85;94821.66;2992602;39;20088;-71
2021/04/26 04:56:09;;;;;;;14.10;8.65;;;;;;;8.12;58.26;94821.91;2991731;39;20149;-73
2021/04/26 04:58:10;;;;;;;13.57;8.98;;;;;;;8.12;57.99;94827.13;2991332;39;20056;-71
2021/04/26 05:00:12;;;;;;;12.98;8.63;;;;;;;8.16;57.80;94818.88;2970434;39;20084;-80
2021/04/26 05:02:14;;;;;;;13.82;9.07;;;;;;;8.27;57.75;94827.50;2975761;39;20047;-87
2021/04/26 05:04:15;;;;;;;19.20;9.93;;;;;;;8.26;57.39;94824.06;2997095;39;20040;-86
2021/04/26 05:06:16;;;;;;;20.08;11.18;;;;;;;8.44;57.49;94824.19;2996933;39;20112;-89
2021/04/26 05:08:17;;;;;;;14.68;9.32;;;;;;;8.57;56.90;94824.66;2996577;39;20134;-86
2021/04/26 05:10:19;;;;;;;16.77;8.82;;;;;;;8.78;56.52;94815.81;2987538;39;20432;-86
2021/04/26 05:12:20;;;;;;;17.73;10.43;;;;;;;8.76;56.09;94826.38;2987473;39;20179;-86
2021/04/26 05:14:23;;;;;;;14.75;7.45;;;;;;;8.85;55.79;94822.09;2970594;39;20064;-72
2021/04/26 05:16:28;;;;;;;15.93;8.35;;;;;;;8.95;55.41;94825.47;2991335;39;20076;-73
2021/04/26 05:18:31;;;;;;;13.80;8.60;;;;;;;9.01;55.45;94832.72;2983301;39;20056;-72
2021/04/26 05:20:32;;;;;;;12.20;7.50;;;;;;;8.97;55.67;94836.59;2992888;39;20039;-73
2021/04/26 05:22:34;;;;;;;17.00;7.82;;;;;;;8.98;55.09;94842.66;2983059;39;20052;-70
2021/04/26 05:24:36;;;;;;;15.10;7.70;;;;;;;8.74;55.40;94845.78;2992888;39;20063;-73
2021/04/26 05:26:38;;;;;;;13.88;7.70;;;;;;;8.78;55.93;94845.34;2978697;39;20135;-73
2021/04/26 05:28:39;;;;;;;11.38;7.80;;;;;;;8.72;55.66;94847.72;2991755;39;20049;-73
2021/04/26 05:30:40;;;;;;;16.38;8.35;;;;;;;8.76;55.58;94838.63;2992944;39;20051;-73
2021/04/26 05:32:41;;;;;;;11.75;7.80;;;;;;;8.90;55.05;94832.91;2993006;39;20035;-73
2021/04/26 05:34:43;;;;;;;12.88;8.77;;;;;;;9.17;54.77;94826.03;2988797;39;20401;-72
2021/04/26 05:36:44;;;;;;;12.45;7.30;;;;;;;9.47;53.89;94819.63;2989109;39;20055;-70
2021/04/26 05:38:45;;;;;;;15.18;8.10;;;;;;;9.73;52.70;94814.47;2999523;39;20070;-73
2021/04/26 05:40:49;;;;;;;13.40;8.02;;;;;;;9.94;52.87;94811.53;2991380;39;20340;-72
2021/04/26 05:42:50;;;;;;;;;;;;;;;10.13;52.42;94813.13;2988232;39;20077;-86
2021/04/26 05:44:51;;;;;;;15.05;7.18;;;;;;;10.23;52.10;94821.69;2985222;39;19980;-88
2021/04/26 05:46:53;;;;;;;10.90;6.78;;;;;;;10.34;51.71;94820.66;2993225;39;20113;-83
2021/04/26 05:48:54;;;;;;;18.13;7.38;;;;;;;10.28;51.88;94823.84;2997210;39;20035;-85
2021/04/26 05:50:56;;;;;;;14.65;7.53;;;;;;;10.21;51.44;94823.63;2987468;39;20104;-87
2021/04/26 05:52:58;;;;;;;14.13;6.88;;;;;;;10.26;51.51;94817.97;2989090;39;20024;-86
2021/04/26 05:55:00;;;;;;;13.15;8.63;;;;;;;10.29;51.66;94824.69;2997317;39;20035;-86
2021/04/26 05:57:01;;;;;;;14.43;7.90;;;;;;;10.02;51.41;94826.44;2989353;39;20332;-88
2021/04/26 05:59:03;;;;;;;11.65;7.45;;;;;;;9.59;52.92;94821.06;2988860;39;20072;-86
2021/04/26 06:01:04;;;;;;;10.98;7.80;;;;;;;9.60;52.84;94820.06;2988531;39;20060;-86
2021/04/26 06:03:06;;;;;;;14.88;7.53;;;;;;;9.66;53.16;94816.06;2987030;39;20042;-86
2021/04/26 06:05:08;;;;;;;11.23;8.20;;;;;;;9.80;52.52;94812.88;2999433;39;20032;-86
2021/04/26 06:07:09;;;;;;;22.70;8.13;;;;;;;10.02;52.12;94806.34;3004732;39;20046;-86
2021/04/26 06:09:11;;;;;;;14.02;8.40;;;;;;;10.01;51.22;94811.75;2995463;39;20055;-87
2021/04/26 06:11:12;;;;;;;11.18;7.40;;;;;;;10.19;50.88;94817.72;2990793;39;20036;-88
2021/04/26 06:13:14;;;;;;;11.38;6.95;;;;;;;10.43;50.74;94821.50;2993133;39;20104;-86
2021/04/26 06:15:15;;;;;;;11.43;6.75;;;;;;;10.72;49.78;94815.13;3002480;39;20491;-87
2021/04/26 06:17:16;;;;;;;13.20;7.45;;;;;;;10.97;49.22;94816.03;2987671;39;20032;-86
2021/04/26 06:19:17;;;;;;;12.60;7.03;;;;;;;11.20;48.40;94816.28;2999672;39;20051;-87
2021/04/26 06:21:19;;;;;;;10.90;7.90;;;;;;;11.14;48.36;94824.78;2979170;40;20080;-88
2021/04/26 06:23:20;;;;;;;12.80;7.78;;;;;;;10.83;49.31;94817.47;2997103;39;20107;-86
2021/04/26 06:25:21;;;;;;;14.32;7.47;;;;;;;10.57;50.14;94818.31;2978435;40;20073;-87
2021/04/26 06:27:23;;;;;;;14.40;7.70;;;;;;;10.47;50.37;94819.41;2996116;39;20055;-86
2021/04/26 06:29:24;;;;;;;15.05;7.88;;;;;;;10.28;50.58;94818.59;2997062;39;20035;-88
2021/04/26 06:31:25;;;;;;;10.75;7.32;;;;;;;10.19;51.23;94814.31;2979988;40;20036;-86
2021/04/26 06:33:26;;;;;;;13.88;7.45;;;;;;;10.41;50.90;94813.00;2997277;39;20070;-86
2021/04/26 06:35:28;;;;;;;10.93;7.47;;;;;;;10.70;49.96;94814.47;2998447;39;20447;-86
2021/04/26 06:37:30;;;;;;;13.38;7.93;;;;;;;10.79;49.88;94809.09;2997334;39;20493;-86
2021/04/26 06:39:31;;;;;;;16.25;7.53;;;;;;;10.83;49.96;94814.84;2979387;39;20036;-85
2021/04/26 06:41:32;;;;;;;10.88;6.85;;;;;;;11.15;49.13;94816.75;2989411;39;20064;-87
2021/04/26 06:43:34;;;;;;;9.75;6.97;;;;;;;11.26;48.99;94813.03;2981576;39;20051;-84
2021/04/26 06:45:35;;;;;;;14.10;7.95;;;;;;;11.55;48.34;94802.09;2987110;39;20032;-85
2021/04/26 06:47:37;;;;;;;13.27;7.30;;;;;;;11.77;47.63;94800.63;2996517;39;20043;-87
2021/04/26 06:49:39;;;;;;;9.75;6.85;;;;;;;11.96;47.30;94801.28;2990101;39;20100;-87
2021/04/26 06:51:40;;;;;;;9.05;6.43;;;;;;;11.99;46.50;94798.34;2985034;40;20064;-83
2021/04/26 06:53:41;;;;;;;13.50;7.50;;;;;;;11.84;47.18;94790.28;2983298;39;20048;-85
2021/04/26 06:55:44;;;;;;;11.50;6.95;;;;;;;12.00;47.01;94787.69;2996262;39;20047;-75
2021/04/26 06:57:45;;;;;;;15.68;7.20;;;;;;;11.90;46.70;94799.34;2993795;39;20428;-86
2021/04/26 06:59:46;;;;;;;14.93;6.95;;;;;;;11.86;46.69;94802.25;2990364;39;20038;-86
2021/04/26 07:01:47;;;;;;;15.30;7.30;;;;;;;11.72;47.03;94797.66;2990052;39;20330;-88
2021/04/26 07:03:52;;;;;;;13.90;6.90;;;;;;;11.65;47.73;94799.31;2993505;39;20403;-87
2021/04/26 07:05:54;;;;;;;16.35;8.38;;;;;;;11.47;47.97;94802.91;2988706;39;20047;-87
2021/04/26 07:07:55;;;;;;;12.73;8.93;;;;;;;11.66;47.66;94806.22;2989231;39;20049;-87
2021/04/26 07:09:56;;;;;;;19.27;9.23;;;;;;;11.90;47.45;94805.41;2979112;40;20048;-87
2021/04/26 07:11:58;;;;;;;15.93;7.97;;;;;;;11.90;47.07;94802.78;2987802;39;20032;-87
2021/04/26 07:13:59;;;;;;;10.65;7.65;;;;;;;11.97;47.03;94798.50;2988182;39;20061;-89
2021/04/26 07:16:00;;;;;;;14.50;7.10;;;;;;;12.22;46.71;94791.44;2981532;39;20140;-88
2021/04/26 07:18:02;;;;;;;13.63;7.20;;;;;;;12.44;45.95;94791.72;2990001;39;20064;-86
2021/04/26 07:20:05;;;;;;;11.85;7.80;;;;;;;12.73;45.60;94799.00;2988614;39;20035;-89
2021/04/26 07:22:06;;;;;;;14.43;8.90;;;;;;;12.60;45.18;94804.00;2979773;39;20067;-84
2021/04/26 07:24:08;;;;;;;14.20;8.18;;;;;;;12.27;45.82;94794.38;2988052;39;20385;-86
2021/04/26 07:26:09;;;;;;;11.98;7.38;;;;;;;12.26;46.03;94805.88;2985174;39;20044;-87
2021/04/26 07:28:11;;;;;;;13.48;7.75;;;;;;;12.36;46.12;94799.63;3003348;39;20091;-89
2021/04/26 07:30:13;;;;;;;11.25;7.75;;;;;;;12.43;45.81;94801.41;2978998;39;20093;-87
2021/04/26 07:32:14;;;;;;;15.63;7.75;;;;;;;12.55;45.57;94801.88;2988762;39;20333;-87
2021/04/26 07:34:15;;;;;;;16.27;8.85;;;;;;;12.45;45.24;94806.50;2979045;39;20047;-90
2021/04/26 07:36:17;;;;;;;13.80;7.57;;;;;;;12.54;45.39;94808.13;2978920;39;20063;-87
2021/04/26 07:38:18;;;;;;;19.45;8.50;;;;;;;12.58;45.67;94804.16;2979213;40;20097;-87
2021/04/26 07:40:19;;;;;;;17.67;10.05;;;;;;;12.74;45.20;94810.38;2980121;39;20340;-87
2021/04/26 07:42:20;;;;;;;12.60;7.72;;;;;;;12.76;45.23;94800.50;2997356;39;20044;-87
2021/04/26 07:44:22;;;;;;;12.88;8.25;;;;;;;12.82;44.89;94803.28;2996183;39;20055;-87
2021/04/26 07:46:23;;;;;;;11.20;7.80;;;;;;;12.97;44.28;94800.75;3005570;39;20051;-87
2021/04/26 07:48:25;;;;;;;14.27;7.97;;;;;;;12.75;45.25;94797.03;2992607;39;20141;-88
2021/04/26 07:50:27;;;;;;;15.57;9.75;;;;;;;13.03;44.71;94804.50;2996360;39;20123;-89
2021/04/26 07:52:28;;;;;;;15.10;8.15;;;;;;;13.22;44.15;94801.44;2987365;39;20040;-74
2021/04/26 07:54:29;;;;;;;12.50;7.40;;;;;;;13.45;43.67;94801.50;2991355;39;20081;-76
2021/04/26 07:56:31;;;;;;;11.80;7.93;;;;;;;13.79;43.18;94789.75;2992020;39;20059;-73
2021/04/26 07:58:32;;;;;;;16.55;7.32;;;;;;;14.11;42.62;94787.81;2988413;39;20048;-74
2021/04/26 08:00:34;;;;;;;14.88;7.00;;;;;;;14.38;41.90;94786.44;2992505;39;20046;-74
2021/04/26 08:02:35;;;;;;;14.23;7.63;;;;;;;14.61;41.02;94775.84;2993139;39;20134;-74
2021/04/26 08:04:36;;;;;;;12.88;7.30;;;;;;;14.76;40.20;94777.66;2993049;39;20136;-73
2021/04/26 08:06:39;;;;;;;11.43;6.93;;;;;;;14.26;40.40;94770.25;2988557;39;20142;-74
2021/04/26 08:08:40;;;;;;;10.63;6.82;;;;;;;14.21;41.59;94774.41;2989363;39;20039;-73
2021/04/26 08:10:42;;;;;;;12.05;6.68;;;;;;;14.52;40.96;94779.56;2992313;39;20165;-73
2021/04/26 08:12:43;;;;;;;12.50;7.47;;;;;;;14.69;40.90;94773.13;2987571;39;20505;-73
2021/04/26 08:14:44;;;;;;;10.05;6.50;;;;;;;14.95;40.08;94782.38;2987256;39;20087;-74
2021/04/26 08:16:45;;;;;;;15.05;5.93;;;;;;;15.20;39.42;94780.22;2992546;39;20143;-77
2021/04/26 08:18:47;;;;;;;10.82;6.35;;;;;;;15.42;37.78;94781.06;2993052;39;20090;-73
2021/04/26 08:20:48;;;;;;;9.80;5.90;;;;;;;15.50;37.31;94786.25;2980099;39;20060;-73
2021/04/26 08:22:49;;;;;;;9.80;5.90;;;;;;;15.14;37.54;94784.44;2982776;39;20433;-74
2021/04/26 08:24:51;;;;;;;9.43;6.00;;;;;;;15.29;37.54;94773.00;2991850;39;20058;-75
2021/04/26 08:26:52;;;;;;;12.80;7.53;;;;;;;15.04;37.08;94780.47;2983328;39;20059;-72
2021/04/26 08:28:53;;;;;;;11.15;5.68;;;;;;;14.86;37.29;94780.81;2992608;39;20310;-74
2021/04/26 08:30:54;;;;;;;10.77;5.15;;;;;;;14.82;37.25;94774.28;2993229;39;20050;-73
2021/04/26 08:32:55;;;;;;;8.15;5.60;;;;;;;14.72;37.19;94777.22;2993155;39;20059;-73
2021/04/26 08:34:57;;;;;;;6.35;3.85;;;;;;;14.64;34.28;94778.09;2993603;39;20364;-73
2021/04/26 08:36:58;;;;;;;9.27;3.78;;;;;;;14.86;34.05;94775.56;2982632;39;20063;-73
2021/04/26 08:39:00;;;;;;;7.85;3.78;;;;;;;15.13;34.64;94781.97;2972154;40;20089;-75
2021/04/26 08:41:02;;;;;;;8.82;4.88;;;;;;;15.37;35.40;94780.81;2984621;39;20059;-74
2021/04/26 08:43:07;;;;;;;9.93;5.28;;;;;;;15.54;35.47;94771.66;2982527;39;20070;-75
2021/04/26 08:45:09;;;;;;;9.20;5.30;;;;;;;15.80;35.12;94782.72;2992732;39;20058;-74
2021/04/26 08:47:11;;;;;;;10.75;5.72;;;;;;;15.97;34.99;94782.25;2989101;39;20450;-75
2021/04/26 08:49:19;;;;;;;9.77;5.70;;;;;;;16.07;34.72;94775.84;2982575;39;20054;-74
2021/04/26 08:51:20;;;;;;;8.45;5.18;;;;;;;16.16;34.03;94777.34;2988523;39;20403;-72
2021/04/26 08:53:22;;;;;;;13.50;6.57;;;;;;;16.33;34.28;94775.22;2980515;39;20040;-73
2021/04/26 08:55:23;;;;;;;12.85;5.90;;;;;;;16.51;34.21;94769.44;2986742;39;20121;-74
2021/04/26 08:57:25;;;;;;;8.15;5.38;;;;;;;16.36;33.32;94765.06;2993717;39;20442;-75
2021/04/26 08:59:26;;;;;;;9.13;5.57;;;;;;;16.26;32.32;94769.91;2992663;39;20057;-73
2021/04/26 09:01:57;;;;;;;11.70;5.70;;;;;;;16.09;32.97;94773.81;2987560;39;20051;-72
2021/04/26 09:04:06;;;;;;;10.20;5.57;;;;;;;16.22;33.02;94770.44;2982772;39;20055;-73
2021/04/26 09:06:10;;;;;;;9.65;5.10;;;;;;;16.22;31.69;94775.72;2991763;39;20055;-72
2021/04/26 09:08:13;;;;;;;;;;;;;;;16.30;30.26;94776.41;2988635;39;20055;-74
2021/04/26 09:10:14;;;;;;;5.97;3.65;;;;;;;16.37;30.44;94769.34;2991246;39;19933;-73
2021/04/26 09:12:27;;;;;;;6.28;3.92;;;;;;;16.61;29.30;94767.28;2991737;39;20475;-74
2021/04/26 09:14:34;;;;;;;8.40;4.20;;;;;;;16.84;29.05;94769.66;2980866;39;20349;-74
2021/04/26 09:16:36;;;;;;;8.10;3.92;;;;;;;17.03;27.58;94764.66;2995329;39;20101;-89
2021/04/26 09:18:56;;;;;;;7.47;3.42;;;;;;;16.20;26.43;94769.81;2989687;39;20072;-86
2021/04/26 09:21:17;;;;;;;14.40;4.13;;;;;;;16.29;27.53;94758.94;3001538;39;20047;-85
2021/04/26 09:23:19;;;;;;;6.97;4.65;;;;;;;16.54;28.35;94758.47;2989456;39;20117;-89
2021/04/26 09:25:42;;;;;;;9.23;4.03;;;;;;;16.88;28.46;94756.84;2989944;39;20044;-87
2021/04/26 09:27:53;;;;;;;6.00;4.05;;;;;;;16.90;28.02;94763.56;2978733;39;20060;-87
2021/04/26 09:29:55;;;;;;;8.77;3.80;;;;;;;16.93;27.60;94762.38;2987261;39;20425;-88
2021/04/26 09:32:14;;;;;;;6.85;4.22;;;;;;;17.08;27.46;94757.78;2987934;39;20048;-87
2021/04/26 09:34:44;;;;;;;10.10;4.63;;;;;;;17.12;27.52;94756.38;2980681;39;20058;-75
2021/04/26 09:36:45;;;;;;;7.28;4.18;;;;;;;16.97;27.22;94753.84;2991482;39;20059;-75